createdAt,value
2019-02-27T00:00:54.295Z,23.04
2019-02-27T00:01:54.278Z,23.13
2019-02-27T00:02:56.130Z,23.13
2019-02-27T00:03:54.280Z,23.02
2019-02-27T00:04:54.928Z,23.09
2019-02-27T00:05:54.234Z,23.07
2019-02-27T00:06:54.230Z,23.02
2019-02-27T00:07:54.955Z,23.12
2019-02-27T00:08:54.221Z,23.02
2019-02-27T00:09:54.930Z,23.04
2019-02-27T00:10:54.182Z,23.10
2019-02-27T00:11:54.169Z,23.12
2019-02-27T00:12:54.162Z,23.10
2019-02-27T00:13:57.836Z,23.09
2019-02-27T00:14:54.139Z,23.04
2019-02-27T00:15:54.128Z,23.01
2019-02-27T00:16:54.964Z,23.04
2019-02-27T00:17:54.109Z,23.04
2019-02-27T00:18:58.637Z,23.04
2019-02-27T00:19:54.083Z,23.07
2019-02-27T00:20:54.074Z,23.05
2019-02-27T00:21:54.932Z,23.00
2019-02-27T00:22:54.932Z,23.04
2019-02-27T00:23:56.725Z,23.05
2019-02-27T00:24:54.030Z,23.07
2019-02-27T00:25:54.019Z,23.09
2019-02-27T00:26:54.007Z,23.02
2019-02-27T00:27:54.933Z,23.10
2019-02-27T00:28:56.115Z,23.02
2019-02-27T00:29:54.939Z,22.92
2019-02-27T00:30:53.969Z,23.10
2019-02-27T00:31:53.952Z,23.02
2019-02-27T00:32:54.932Z,23.09
2019-02-27T00:33:53.947Z,23.04
2019-02-27T00:34:53.924Z,23.01
2019-02-27T00:35:53.958Z,23.05
2019-02-27T00:36:53.897Z,23.04
2019-02-27T00:37:53.886Z,23.00
2019-02-27T00:38:57.727Z,23.04
2019-02-27T00:39:53.868Z,23.01
2019-02-27T00:40:53.853Z,22.97
2019-02-27T00:41:54.435Z,23.01
2019-02-27T00:42:54.313Z,23.02
2019-02-27T00:43:53.821Z,23.02
2019-02-27T00:44:53.949Z,23.04
2019-02-27T00:45:53.797Z,22.97
2019-02-27T00:46:54.433Z,23.02
2019-02-27T00:47:53.886Z,22.97
2019-02-27T00:48:53.767Z,22.97
2019-02-27T00:49:53.770Z,23.01
2019-02-27T00:50:53.744Z,23.04
2019-02-27T00:51:53.733Z,22.95
2019-02-27T00:52:53.723Z,23.02
2019-02-27T00:53:55.952Z,23.02
2019-02-27T00:54:53.711Z,22.97
2019-02-27T00:55:53.689Z,23.05
2019-02-27T00:56:53.678Z,23.01
2019-02-27T00:57:54.432Z,22.92
2019-02-27T00:58:53.658Z,22.95
2019-02-27T00:59:53.659Z,22.98
2019-02-27T01:00:53.635Z,22.97
2019-02-27T01:01:53.623Z,22.98
2019-02-27T01:02:54.439Z,22.95
2019-02-27T01:03:53.602Z,22.98
2019-02-27T01:04:53.617Z,22.94
2019-02-27T01:05:53.581Z,22.92
2019-02-27T01:06:53.571Z,22.97
2019-02-27T01:07:54.219Z,22.95
2019-02-27T01:08:54.438Z,22.90
2019-02-27T01:09:53.959Z,22.94
2019-02-27T01:10:53.523Z,22.95
2019-02-27T01:11:53.517Z,22.91
2019-02-27T01:12:57.690Z,22.88
2019-02-27T01:13:54.436Z,22.91
2019-02-27T01:14:53.509Z,22.90
2019-02-27T01:15:53.472Z,22.92
2019-02-27T01:16:53.467Z,22.92
2019-02-27T01:17:55.044Z,22.94
2019-02-27T01:18:54.436Z,22.94
2019-02-27T01:19:53.453Z,22.91
2019-02-27T01:20:53.420Z,22.97
2019-02-27T01:21:53.408Z,22.88
2019-02-27T01:22:53.399Z,22.91
2019-02-27T01:23:53.387Z,22.92
2019-02-27T01:24:53.397Z,22.88
2019-02-27T01:25:56.290Z,22.94
2019-02-27T01:26:53.354Z,22.90
2019-02-27T01:27:53.936Z,22.94
2019-02-27T01:28:53.350Z,22.94
2019-02-27T01:29:53.336Z,22.94
2019-02-27T01:30:53.312Z,22.85
2019-02-27T01:31:54.967Z,22.91
2019-02-27T01:32:53.939Z,22.91
2019-02-27T01:33:53.279Z,22.94
2019-02-27T01:34:53.272Z,22.91
2019-02-27T01:35:53.271Z,22.95
2019-02-27T01:36:54.905Z,22.85
2019-02-27T01:37:53.234Z,22.92
2019-02-27T01:38:53.234Z,22.88
2019-02-27T01:39:53.212Z,22.88
2019-02-27T01:40:53.217Z,22.97
2019-02-27T01:41:55.291Z,22.94
2019-02-27T01:42:53.939Z,22.97
2019-02-27T01:43:53.169Z,22.86
2019-02-27T01:44:53.158Z,22.88
2019-02-27T01:45:54.308Z,22.80
2019-02-27T01:46:54.663Z,22.86
2019-02-27T01:47:53.126Z,22.86
2019-02-27T01:48:53.939Z,22.86
2019-02-27T01:49:53.106Z,22.86
2019-02-27T01:50:55.294Z,22.88
2019-02-27T01:51:53.085Z,22.88
2019-02-27T01:52:53.071Z,22.83
2019-02-27T01:53:53.939Z,22.90
2019-02-27T01:54:53.067Z,22.82
2019-02-27T01:55:56.166Z,22.86
2019-02-27T01:56:53.028Z,22.88
2019-02-27T01:57:53.940Z,22.88
2019-02-27T01:58:53.940Z,22.85
2019-02-27T01:59:53.955Z,22.80
2019-02-27T02:00:56.090Z,22.88
2019-02-27T02:01:52.975Z,22.90
2019-02-27T02:02:53.940Z,22.80
2019-02-27T02:03:52.955Z,22.88
2019-02-27T02:04:53.969Z,22.82
2019-02-27T02:05:52.929Z,22.85
2019-02-27T02:06:52.933Z,22.79
2019-02-27T02:07:53.440Z,22.82
2019-02-27T02:08:53.441Z,22.77
2019-02-27T02:09:55.204Z,22.77
2019-02-27T02:10:52.876Z,22.80
2019-02-27T02:11:52.872Z,22.76
2019-02-27T02:12:52.863Z,22.80
2019-02-27T02:13:53.440Z,22.80
2019-02-27T02:14:54.465Z,22.80
2019-02-27T02:15:52.824Z,22.83
2019-02-27T02:16:52.951Z,22.82
2019-02-27T02:17:53.441Z,22.85
2019-02-27T02:18:52.789Z,22.82
2019-02-27T02:19:54.293Z,22.79
2019-02-27T02:20:53.441Z,22.77
2019-02-27T02:21:52.953Z,22.83
2019-02-27T02:22:53.441Z,22.80
2019-02-27T02:23:52.755Z,22.82
2019-02-27T02:24:54.182Z,22.85
2019-02-27T02:25:52.713Z,22.83
2019-02-27T02:26:52.715Z,22.85
2019-02-27T02:27:53.443Z,22.83
2019-02-27T02:28:53.441Z,22.82
2019-02-27T02:29:53.143Z,22.79
2019-02-27T02:30:52.661Z,22.83
2019-02-27T02:31:52.954Z,22.83
2019-02-27T02:32:53.329Z,22.83
2019-02-27T02:33:53.444Z,22.80
2019-02-27T02:34:52.630Z,22.80
2019-02-27T02:35:52.607Z,22.85
2019-02-27T02:36:52.602Z,22.82
2019-02-27T02:37:52.596Z,22.82
2019-02-27T02:38:53.443Z,22.79
2019-02-27T02:39:54.656Z,22.76
2019-02-27T02:40:52.550Z,22.82
2019-02-27T02:41:53.443Z,22.79
2019-02-27T02:42:52.544Z,22.77
2019-02-27T02:43:52.520Z,22.82
2019-02-27T02:44:57.243Z,22.83
2019-02-27T02:45:52.498Z,22.75
2019-02-27T02:46:52.489Z,22.76
2019-02-27T02:47:55.531Z,22.77
2019-02-27T02:48:52.465Z,22.76
2019-02-27T02:49:52.517Z,22.76
2019-02-27T02:50:54.315Z,22.75
2019-02-27T02:51:52.433Z,22.73
2019-02-27T02:52:52.442Z,22.75
2019-02-27T02:53:52.411Z,22.77
2019-02-27T02:54:52.411Z,22.73
2019-02-27T02:55:52.409Z,22.76
2019-02-27T02:56:52.377Z,22.73
2019-02-27T02:57:52.455Z,22.76
2019-02-27T02:58:52.355Z,22.77
2019-02-27T02:59:52.359Z,22.77
2019-02-27T03:00:52.335Z,22.76
2019-02-27T03:01:52.324Z,22.73
2019-02-27T03:02:52.457Z,22.68
2019-02-27T03:03:52.944Z,22.76
2019-02-27T03:04:52.308Z,22.77
2019-02-27T03:05:58.635Z,22.73
2019-02-27T03:06:52.271Z,22.72
2019-02-27T03:07:52.288Z,22.77
2019-02-27T03:08:55.296Z,22.75
2019-02-27T03:09:52.274Z,22.76
2019-02-27T03:10:52.225Z,22.75
2019-02-27T03:11:54.736Z,22.70
2019-02-27T03:12:52.945Z,22.68
2019-02-27T03:13:52.456Z,22.75
2019-02-27T03:14:54.186Z,22.79
2019-02-27T03:15:52.172Z,22.72
2019-02-27T03:16:52.157Z,22.79
2019-02-27T03:17:54.862Z,22.70
2019-02-27T03:18:52.144Z,22.73
2019-02-27T03:19:52.127Z,22.70
2019-02-27T03:20:53.098Z,22.72
2019-02-27T03:21:52.106Z,22.75
2019-02-27T03:22:52.092Z,22.72
2019-02-27T03:23:52.562Z,22.70
2019-02-27T03:24:52.070Z,22.72
2019-02-27T03:25:52.949Z,22.67
2019-02-27T03:26:53.225Z,22.70
2019-02-27T03:27:52.082Z,22.62
2019-02-27T03:28:52.042Z,22.67
2019-02-27T03:29:53.609Z,22.67
2019-02-27T03:30:52.012Z,22.73
2019-02-27T03:31:59.970Z,22.68
2019-02-27T03:32:51.995Z,22.67
2019-02-27T03:33:51.993Z,22.73
2019-02-27T03:34:52.009Z,22.65
2019-02-27T03:35:52.946Z,22.62
2019-02-27T03:36:52.448Z,22.73
2019-02-27T03:37:51.929Z,22.76
2019-02-27T03:38:51.937Z,22.65
2019-02-27T03:39:51.909Z,22.67
2019-02-27T03:40:51.899Z,22.67
2019-02-27T03:41:58.472Z,22.62
2019-02-27T03:42:51.882Z,22.70
2019-02-27T03:43:51.881Z,22.72
2019-02-27T03:44:55.781Z,22.79
2019-02-27T03:45:51.845Z,22.75
2019-02-27T03:46:51.841Z,22.64
2019-02-27T03:47:52.952Z,22.64
2019-02-27T03:48:51.959Z,22.72
2019-02-27T03:49:51.800Z,22.65
2019-02-27T03:50:51.789Z,22.76
2019-02-27T03:51:51.779Z,22.62
2019-02-27T03:52:52.456Z,22.61
2019-02-27T03:53:51.766Z,22.70
2019-02-27T03:54:56.967Z,22.73
2019-02-27T03:55:51.747Z,22.64
2019-02-27T03:56:51.722Z,22.73
2019-02-27T03:57:54.943Z,22.68
2019-02-27T03:58:51.700Z,22.75
2019-02-27T03:59:51.700Z,22.72
2019-02-27T04:00:53.726Z,22.68
2019-02-27T04:01:52.449Z,22.70
2019-02-27T04:02:52.448Z,22.68
2019-02-27T04:03:55.252Z,22.64
2019-02-27T04:04:51.652Z,22.75
2019-02-27T04:05:51.661Z,22.75
2019-02-27T04:06:53.051Z,22.75
2019-02-27T04:07:51.607Z,22.64
2019-02-27T04:08:51.592Z,22.64
2019-02-27T04:09:55.331Z,22.76
2019-02-27T04:10:51.579Z,22.68
2019-02-27T04:11:52.448Z,22.77
2019-02-27T04:12:52.402Z,22.73
2019-02-27T04:13:51.541Z,22.65
2019-02-27T04:14:51.541Z,22.72
2019-02-27T04:15:53.824Z,22.64
2019-02-27T04:16:52.450Z,22.76
2019-02-27T04:17:52.244Z,22.73
2019-02-27T04:18:51.488Z,22.64
2019-02-27T04:19:51.479Z,22.70
2019-02-27T04:20:51.459Z,22.67
2019-02-27T04:21:51.947Z,22.75
2019-02-27T04:22:51.437Z,22.75
2019-02-27T04:23:51.425Z,22.64
2019-02-27T04:24:56.101Z,22.64
2019-02-27T04:25:51.407Z,22.70
2019-02-27T04:26:51.392Z,22.70
2019-02-27T04:27:55.285Z,22.67
2019-02-27T04:28:51.370Z,22.70
2019-02-27T04:29:51.371Z,22.65
2019-02-27T04:30:52.083Z,22.61
2019-02-27T04:31:51.338Z,22.67
2019-02-27T04:32:51.329Z,22.64
2019-02-27T04:33:51.950Z,22.64
2019-02-27T04:34:51.349Z,22.72
2019-02-27T04:35:51.310Z,22.68
2019-02-27T04:36:51.282Z,22.60
2019-02-27T04:37:53.905Z,22.60
2019-02-27T04:38:51.257Z,22.55
2019-02-27T04:39:51.251Z,22.67
2019-02-27T04:40:51.260Z,22.60
2019-02-27T04:41:52.030Z,22.68
2019-02-27T04:42:51.215Z,22.67
2019-02-27T04:43:51.202Z,22.62
2019-02-27T04:44:51.193Z,22.61
2019-02-27T04:45:51.209Z,22.67
2019-02-27T04:46:54.830Z,22.65
2019-02-27T04:47:51.160Z,22.60
2019-02-27T04:48:51.148Z,22.55
2019-02-27T04:49:51.147Z,22.64
2019-02-27T04:50:51.151Z,22.60
2019-02-27T04:51:51.151Z,22.70
2019-02-27T04:52:51.105Z,22.62
2019-02-27T04:53:51.096Z,22.61
2019-02-27T04:54:51.086Z,22.62
2019-02-27T04:55:51.333Z,22.58
2019-02-27T04:56:51.066Z,22.55
2019-02-27T04:57:51.049Z,22.58
2019-02-27T04:58:51.044Z,22.67
2019-02-27T04:59:52.300Z,22.64
2019-02-27T05:00:51.474Z,22.68
2019-02-27T05:01:51.006Z,22.61
2019-02-27T05:02:53.394Z,22.67
2019-02-27T05:03:50.984Z,22.64
2019-02-27T05:04:50.974Z,22.60
2019-02-27T05:05:50.985Z,22.65
2019-02-27T05:06:50.951Z,22.60
2019-02-27T05:07:54.069Z,22.61
2019-02-27T05:08:51.459Z,22.57
2019-02-27T05:09:50.926Z,22.62
2019-02-27T05:10:50.912Z,22.61
2019-02-27T05:11:50.924Z,22.62
2019-02-27T05:12:51.451Z,22.64
2019-02-27T05:13:54.134Z,22.64
2019-02-27T05:14:50.866Z,22.67
2019-02-27T05:15:50.880Z,22.61
2019-02-27T05:16:50.857Z,22.64
2019-02-27T05:17:53.088Z,22.60
2019-02-27T05:18:50.822Z,22.57
2019-02-27T05:19:52.035Z,22.61
2019-02-27T05:20:50.804Z,22.61
2019-02-27T05:21:52.478Z,22.62
2019-02-27T05:22:50.780Z,22.62
2019-02-27T05:23:50.767Z,22.65
2019-02-27T05:24:50.760Z,22.62
2019-02-27T05:25:50.744Z,22.61
2019-02-27T05:26:50.762Z,22.58
2019-02-27T05:27:50.723Z,22.65
2019-02-27T05:28:51.454Z,22.61
2019-02-27T05:29:50.701Z,22.60
2019-02-27T05:30:50.707Z,22.67
2019-02-27T05:31:53.339Z,22.55
2019-02-27T05:32:50.666Z,22.60
2019-02-27T05:33:50.667Z,22.61
2019-02-27T05:34:51.469Z,22.61
2019-02-27T05:35:50.637Z,22.64
2019-02-27T05:36:50.982Z,22.65
2019-02-27T05:37:50.617Z,22.64
2019-02-27T05:38:50.601Z,22.61
2019-02-27T05:39:51.136Z,22.54
2019-02-27T05:40:50.579Z,22.64
2019-02-27T05:41:50.979Z,22.58
2019-02-27T05:42:51.454Z,22.61
2019-02-27T05:43:50.546Z,22.67
2019-02-27T05:44:55.477Z,22.60
2019-02-27T05:45:50.526Z,22.58
2019-02-27T05:46:50.541Z,22.61
2019-02-27T05:47:50.505Z,22.61
2019-02-27T05:48:50.845Z,22.60
2019-02-27T05:49:51.457Z,22.62
2019-02-27T05:50:50.468Z,22.54
2019-02-27T05:51:50.985Z,22.54
2019-02-27T05:52:50.451Z,22.61
2019-02-27T05:53:50.439Z,22.55
2019-02-27T05:54:50.956Z,22.62
2019-02-27T05:55:50.955Z,22.51
2019-02-27T05:56:50.431Z,22.52
2019-02-27T05:57:50.393Z,22.55
2019-02-27T05:58:50.383Z,22.60
2019-02-27T05:59:50.970Z,22.52
2019-02-27T06:00:50.362Z,22.51
2019-02-27T06:01:50.489Z,22.64
2019-02-27T06:02:50.340Z,22.64
2019-02-27T06:03:52.318Z,22.51
2019-02-27T06:04:50.317Z,22.54
2019-02-27T06:05:50.306Z,22.61
2019-02-27T06:06:50.468Z,22.52
2019-02-27T06:07:50.284Z,22.55
2019-02-27T06:08:50.274Z,22.54
2019-02-27T06:09:50.300Z,22.54
2019-02-27T06:10:55.191Z,22.54
2019-02-27T06:11:50.243Z,22.52
2019-02-27T06:12:50.237Z,22.54
2019-02-27T06:13:50.217Z,22.49
2019-02-27T06:14:54.794Z,22.49
2019-02-27T06:15:50.196Z,22.58
2019-02-27T06:16:50.186Z,22.62
2019-02-27T06:17:50.186Z,22.52
2019-02-27T06:18:50.163Z,22.51
2019-02-27T06:19:50.958Z,22.54
2019-02-27T06:20:50.141Z,22.54
2019-02-27T06:21:50.135Z,22.64
2019-02-27T06:22:50.134Z,22.54
2019-02-27T06:23:50.112Z,22.54
2019-02-27T06:24:50.097Z,22.49
2019-02-27T06:25:50.093Z,22.51
2019-02-27T06:26:50.075Z,22.49
2019-02-27T06:27:50.095Z,22.51
2019-02-27T06:28:50.958Z,22.46
2019-02-27T06:29:50.967Z,22.52
2019-02-27T06:30:50.034Z,22.49
2019-02-27T06:31:50.035Z,22.64
2019-02-27T06:32:50.476Z,22.54
2019-02-27T06:33:50.958Z,22.51
2019-02-27T06:34:50.960Z,22.45
2019-02-27T06:35:49.978Z,22.51
2019-02-27T06:36:49.989Z,22.52
2019-02-27T06:37:50.862Z,22.49
2019-02-27T06:38:49.942Z,22.52
2019-02-27T06:39:49.942Z,22.54
2019-02-27T06:40:49.920Z,22.55
2019-02-27T06:41:50.438Z,22.51
2019-02-27T06:42:53.432Z,22.55
2019-02-27T06:43:49.889Z,22.51
2019-02-27T06:44:49.882Z,22.51
2019-02-27T06:45:49.871Z,22.49
2019-02-27T06:46:51.146Z,22.51
2019-02-27T06:47:49.870Z,22.51
2019-02-27T06:48:50.458Z,22.52
2019-02-27T06:49:51.976Z,22.61
2019-02-27T06:50:49.816Z,22.52
2019-02-27T06:51:50.474Z,22.43
2019-02-27T06:52:50.459Z,22.54
2019-02-27T06:53:49.795Z,22.58
2019-02-27T06:54:51.917Z,22.40
2019-02-27T06:55:49.763Z,22.47
2019-02-27T06:56:50.475Z,22.49
2019-02-27T06:57:49.742Z,22.46
2019-02-27T06:58:50.140Z,22.46
2019-02-27T06:59:49.715Z,22.43
2019-02-27T07:00:50.462Z,22.46
2019-02-27T07:01:50.474Z,22.43
2019-02-27T07:02:49.687Z,22.52
2019-02-27T07:03:49.682Z,22.45
2019-02-27T07:04:49.660Z,22.49
2019-02-27T07:05:50.477Z,22.47
2019-02-27T07:06:49.644Z,22.45
2019-02-27T07:07:49.629Z,22.49
2019-02-27T07:08:49.632Z,22.47
2019-02-27T07:09:49.604Z,22.51
2019-02-27T07:10:49.596Z,22.45
2019-02-27T07:11:49.586Z,22.45
2019-02-27T07:12:54.404Z,22.45
2019-02-27T07:13:49.571Z,22.43
2019-02-27T07:14:50.468Z,22.49
2019-02-27T07:15:49.542Z,22.37
2019-02-27T07:16:49.534Z,22.40
2019-02-27T07:17:50.460Z,22.37
2019-02-27T07:18:49.526Z,22.35
2019-02-27T07:19:49.888Z,22.33
2019-02-27T07:20:49.485Z,22.37
2019-02-27T07:21:50.460Z,22.37
2019-02-27T07:22:49.961Z,22.39
2019-02-27T07:23:49.466Z,22.40
2019-02-27T07:24:49.441Z,22.37
2019-02-27T07:25:49.430Z,22.36
2019-02-27T07:26:50.292Z,22.27
2019-02-27T07:27:49.411Z,22.37
2019-02-27T07:28:49.410Z,22.40
2019-02-27T07:29:49.973Z,22.39
2019-02-27T07:30:49.379Z,22.42
2019-02-27T07:31:49.515Z,22.46
2019-02-27T07:32:49.980Z,22.46
2019-02-27T07:33:49.376Z,22.49
2019-02-27T07:34:49.779Z,22.40
2019-02-27T07:35:49.324Z,22.47
2019-02-27T07:36:49.309Z,22.47
2019-02-27T07:37:49.974Z,22.46
2019-02-27T07:38:49.299Z,22.46
2019-02-27T07:39:49.963Z,22.51
2019-02-27T07:40:49.265Z,22.49
2019-02-27T07:41:49.979Z,22.52
2019-02-27T07:42:49.256Z,22.49
2019-02-27T07:43:49.234Z,22.46
2019-02-27T07:44:49.228Z,22.54
2019-02-27T07:45:49.211Z,22.37
2019-02-27T07:46:49.203Z,22.45
2019-02-27T07:47:49.200Z,22.58
2019-02-27T07:48:49.173Z,22.52
2019-02-27T07:49:49.178Z,22.47
2019-02-27T07:50:49.963Z,22.52
2019-02-27T07:51:49.145Z,22.47
2019-02-27T07:52:49.174Z,22.49
2019-02-27T07:53:51.445Z,22.58
2019-02-27T07:54:49.483Z,22.57
2019-02-27T07:55:49.105Z,22.47
2019-02-27T07:56:49.088Z,22.49
2019-02-27T07:57:49.079Z,22.54
2019-02-27T07:58:49.078Z,22.49
2019-02-27T07:59:49.478Z,22.51
2019-02-27T08:00:49.839Z,22.52
2019-02-27T08:01:49.034Z,22.65
2019-02-27T08:02:49.022Z,22.54
2019-02-27T08:03:49.977Z,22.52
2019-02-27T08:04:51.675Z,22.60
2019-02-27T08:05:48.991Z,22.60
2019-02-27T08:06:48.981Z,22.49
2019-02-27T08:07:49.877Z,22.64
2019-02-27T08:08:49.480Z,22.62
2019-02-27T08:09:48.958Z,22.67
2019-02-27T08:10:48.937Z,22.68
2019-02-27T08:11:49.465Z,22.64
2019-02-27T08:12:48.946Z,22.75
2019-02-27T08:13:48.914Z,22.76
2019-02-27T08:14:48.908Z,22.76
2019-02-27T08:15:49.469Z,22.77
2019-02-27T08:16:48.874Z,22.70
2019-02-27T08:17:48.934Z,22.68
2019-02-27T08:18:48.876Z,22.67
2019-02-27T08:19:48.985Z,22.58
2019-02-27T08:20:54.200Z,22.58
2019-02-27T08:21:48.817Z,22.49
2019-02-27T08:22:49.652Z,22.52
2019-02-27T08:23:49.478Z,22.49
2019-02-27T08:24:48.979Z,22.42
2019-02-27T08:25:48.772Z,22.46
2019-02-27T08:26:49.204Z,22.39
2019-02-27T08:27:48.750Z,22.37
2019-02-27T08:28:48.748Z,22.27
2019-02-27T08:29:48.727Z,22.31
2019-02-27T08:30:48.722Z,22.25
2019-02-27T08:31:48.722Z,22.25
2019-02-27T08:32:48.693Z,22.21
2019-02-27T08:33:48.682Z,22.22
2019-02-27T08:34:48.676Z,22.31
2019-02-27T08:35:49.496Z,22.25
2019-02-27T08:36:48.660Z,22.21
2019-02-27T08:37:49.467Z,22.24
2019-02-27T08:38:48.647Z,22.21
2019-02-27T08:39:49.471Z,22.22
2019-02-27T08:40:48.615Z,22.27
2019-02-27T08:41:48.592Z,22.25
2019-02-27T08:42:49.467Z,22.25
2019-02-27T08:43:48.582Z,22.33
2019-02-27T08:44:49.466Z,22.27
2019-02-27T08:45:48.557Z,22.33
2019-02-27T08:46:48.538Z,22.35
2019-02-27T08:47:48.531Z,22.33
2019-02-27T08:48:50.111Z,22.35
2019-02-27T08:49:48.506Z,22.35
2019-02-27T08:50:48.512Z,22.33
2019-02-27T08:51:48.488Z,22.35
2019-02-27T08:52:51.549Z,22.42
2019-02-27T08:53:48.992Z,22.25
2019-02-27T08:54:48.453Z,22.27
2019-02-27T08:55:48.450Z,22.30
2019-02-27T08:56:48.443Z,22.33
2019-02-27T08:57:49.927Z,22.27
2019-02-27T08:58:48.411Z,22.30
2019-02-27T08:59:48.971Z,22.31
2019-02-27T09:00:48.397Z,22.31
2019-02-27T09:01:48.990Z,22.35
2019-02-27T09:02:48.364Z,22.35
2019-02-27T09:03:49.153Z,22.30
2019-02-27T09:04:48.974Z,22.36
2019-02-27T09:05:51.003Z,22.37
2019-02-27T09:06:48.330Z,22.27
2019-02-27T09:07:48.313Z,22.37
2019-02-27T09:08:48.310Z,22.33
2019-02-27T09:09:51.376Z,22.31
2019-02-27T09:10:48.274Z,22.36
2019-02-27T09:11:48.989Z,22.40
2019-02-27T09:12:49.101Z,22.37
2019-02-27T09:13:48.242Z,22.43
2019-02-27T09:14:48.970Z,22.51
2019-02-27T09:15:48.224Z,22.46
2019-02-27T09:16:48.221Z,22.46
2019-02-27T09:17:48.198Z,22.45
2019-02-27T09:18:48.190Z,22.42
2019-02-27T09:19:48.972Z,22.51
2019-02-27T09:20:53.039Z,22.47
2019-02-27T09:21:48.164Z,22.54
2019-02-27T09:22:48.146Z,22.51
2019-02-27T09:23:48.131Z,22.60
2019-02-27T09:24:48.123Z,22.64
2019-02-27T09:25:48.957Z,22.67
2019-02-27T09:26:48.121Z,22.64
2019-02-27T09:27:48.970Z,22.67
2019-02-27T09:28:48.108Z,22.64
2019-02-27T09:29:49.392Z,22.62
2019-02-27T09:30:48.055Z,22.68
2019-02-27T09:31:51.063Z,22.70
2019-02-27T09:32:48.044Z,22.70
2019-02-27T09:33:48.024Z,22.70
2019-02-27T09:34:49.111Z,22.77
2019-02-27T09:35:48.001Z,22.70
2019-02-27T09:36:49.161Z,22.77
2019-02-27T09:37:51.238Z,22.73
2019-02-27T09:38:48.000Z,22.75
2019-02-27T09:39:48.016Z,22.72
2019-02-27T09:40:47.951Z,22.79
2019-02-27T09:41:48.478Z,22.83
2019-02-27T09:42:50.226Z,22.80
2019-02-27T09:43:47.923Z,22.80
2019-02-27T09:44:48.482Z,22.82
2019-02-27T09:45:48.485Z,22.86
2019-02-27T09:46:49.922Z,22.83
2019-02-27T09:47:47.879Z,22.83
2019-02-27T09:48:48.471Z,22.82
2019-02-27T09:49:47.858Z,22.79
2019-02-27T09:50:48.917Z,22.83
2019-02-27T09:51:47.826Z,22.86
2019-02-27T09:52:47.825Z,22.85
2019-02-27T09:53:47.805Z,22.91
2019-02-27T09:54:48.482Z,22.92
2019-02-27T09:55:47.779Z,22.90
2019-02-27T09:56:48.471Z,22.97
2019-02-27T09:57:47.773Z,22.97
2019-02-27T09:58:48.472Z,23.01
2019-02-27T09:59:51.107Z,22.98
2019-02-27T10:00:47.729Z,23.05
2019-02-27T10:01:48.476Z,23.04
2019-02-27T10:02:47.726Z,23.05
2019-02-27T10:03:47.692Z,23.12
2019-02-27T10:04:47.690Z,23.13
2019-02-27T10:05:47.875Z,23.19
2019-02-27T10:06:47.667Z,23.15
2019-02-27T10:07:51.345Z,23.12
2019-02-27T10:08:47.651Z,23.15
2019-02-27T10:09:47.637Z,23.13
2019-02-27T10:10:47.615Z,23.19
2019-02-27T10:11:47.605Z,23.16
2019-02-27T10:12:47.616Z,23.25
2019-02-27T10:13:47.588Z,23.25
2019-02-27T10:14:50.253Z,23.27
2019-02-27T10:15:47.562Z,23.28
2019-02-27T10:16:48.479Z,23.32
2019-02-27T10:17:47.549Z,23.36
2019-02-27T10:18:47.529Z,23.38
2019-02-27T10:19:48.497Z,23.33
2019-02-27T10:20:48.475Z,23.39
2019-02-27T10:21:47.643Z,23.36
2019-02-27T10:22:47.514Z,23.46
2019-02-27T10:23:47.482Z,23.40
2019-02-27T10:24:47.477Z,23.43
2019-02-27T10:25:49.851Z,23.47
2019-02-27T10:26:47.458Z,23.46
2019-02-27T10:27:47.460Z,23.51
2019-02-27T10:28:47.431Z,23.48
2019-02-27T10:29:48.514Z,23.50
2019-02-27T10:30:49.914Z,23.51
2019-02-27T10:31:48.023Z,23.55
2019-02-27T10:32:47.372Z,23.51
2019-02-27T10:33:47.369Z,23.50
2019-02-27T10:34:47.360Z,23.58
2019-02-27T10:35:47.348Z,23.60
2019-02-27T10:36:47.718Z,23.50
2019-02-27T10:37:50.403Z,23.54
2019-02-27T10:38:48.002Z,23.66
2019-02-27T10:39:47.296Z,23.63
2019-02-27T10:40:47.291Z,23.61
2019-02-27T10:41:49.702Z,23.61
2019-02-27T10:42:50.334Z,23.65
2019-02-27T10:43:47.271Z,23.60
2019-02-27T10:44:48.020Z,23.70
2019-02-27T10:45:49.299Z,23.75
2019-02-27T10:46:48.174Z,23.72
2019-02-27T10:47:47.211Z,23.72
2019-02-27T10:48:47.666Z,23.78
2019-02-27T10:49:47.199Z,23.70
2019-02-27T10:50:47.982Z,23.73
2019-02-27T10:51:47.177Z,23.75
2019-02-27T10:52:49.949Z,23.80
2019-02-27T10:53:47.156Z,23.75
2019-02-27T10:54:47.145Z,23.91
2019-02-27T10:55:49.322Z,23.88
2019-02-27T10:56:47.116Z,23.83
2019-02-27T10:57:47.115Z,23.85
2019-02-27T10:58:47.679Z,23.83
2019-02-27T10:59:47.110Z,23.93
2019-02-27T11:00:47.070Z,23.83
2019-02-27T11:01:47.977Z,23.88
2019-02-27T11:02:47.903Z,23.98
2019-02-27T11:03:47.489Z,23.97
2019-02-27T11:04:47.029Z,24.02
2019-02-27T11:05:47.012Z,24.00
2019-02-27T11:06:47.002Z,24.06
2019-02-27T11:07:46.992Z,24.09
2019-02-27T11:08:46.981Z,24.00
2019-02-27T11:09:46.991Z,24.09
2019-02-27T11:10:47.481Z,24.13
2019-02-27T11:11:48.682Z,24.18
2019-02-27T11:12:46.938Z,24.24
2019-02-27T11:13:48.463Z,24.16
2019-02-27T11:14:46.936Z,24.30
2019-02-27T11:15:47.478Z,24.28
2019-02-27T11:16:46.896Z,24.30
2019-02-27T11:17:46.884Z,24.20
2019-02-27T11:18:46.875Z,24.25
2019-02-27T11:19:47.005Z,24.24
2019-02-27T11:20:47.483Z,24.31
2019-02-27T11:21:46.838Z,24.24
2019-02-27T11:22:46.842Z,24.34
2019-02-27T11:23:47.482Z,24.31
2019-02-27T11:24:49.008Z,24.31
2019-02-27T11:25:47.575Z,24.37
2019-02-27T11:26:46.785Z,24.35
2019-02-27T11:27:46.777Z,24.25
2019-02-27T11:28:47.848Z,24.30
2019-02-27T11:29:47.021Z,24.30
2019-02-27T11:30:47.488Z,24.30
2019-02-27T11:31:47.478Z,24.30
2019-02-27T11:32:47.478Z,24.35
2019-02-27T11:33:46.703Z,24.32
2019-02-27T11:34:48.504Z,24.37
2019-02-27T11:35:46.681Z,24.32
2019-02-27T11:36:46.672Z,24.35
2019-02-27T11:37:47.514Z,24.32
2019-02-27T11:38:47.501Z,24.35
2019-02-27T11:39:46.643Z,24.46
2019-02-27T11:40:46.776Z,24.42
2019-02-27T11:41:48.466Z,24.39
2019-02-27T11:42:47.527Z,24.40
2019-02-27T11:43:47.507Z,24.39
2019-02-27T11:44:49.455Z,24.39
2019-02-27T11:45:46.572Z,24.46
2019-02-27T11:46:46.565Z,24.43
2019-02-27T11:47:48.127Z,24.46
2019-02-27T11:48:47.480Z,24.47
2019-02-27T11:49:46.542Z,24.47
2019-02-27T11:50:47.508Z,24.50
2019-02-27T11:51:46.505Z,24.47
2019-02-27T11:52:49.119Z,24.49
2019-02-27T11:53:46.483Z,24.55
2019-02-27T11:54:46.484Z,24.55
2019-02-27T11:55:47.387Z,24.55
2019-02-27T11:56:46.450Z,24.58
2019-02-27T11:57:46.437Z,24.58
2019-02-27T11:58:46.427Z,24.67
2019-02-27T11:59:46.892Z,24.53
2019-02-27T12:00:46.502Z,24.55
2019-02-27T12:01:46.409Z,24.71
2019-02-27T12:02:46.385Z,24.69
2019-02-27T12:03:46.568Z,24.68
2019-02-27T12:04:46.362Z,24.73
2019-02-27T12:05:46.369Z,24.73
2019-02-27T12:06:46.981Z,24.69
2019-02-27T12:07:50.804Z,24.69
2019-02-27T12:08:46.325Z,24.73
2019-02-27T12:09:46.306Z,24.78
2019-02-27T12:10:46.506Z,24.85
2019-02-27T12:11:48.730Z,24.80
2019-02-27T12:12:47.001Z,24.77
2019-02-27T12:13:46.263Z,24.84
2019-02-27T12:14:46.254Z,24.84
2019-02-27T12:15:46.274Z,24.88
2019-02-27T12:16:51.377Z,24.83
2019-02-27T12:17:47.015Z,24.87
2019-02-27T12:18:46.213Z,24.81
2019-02-27T12:19:46.987Z,24.91
2019-02-27T12:20:46.509Z,24.85
2019-02-27T12:21:46.982Z,24.90
2019-02-27T12:22:46.162Z,24.93
2019-02-27T12:23:46.151Z,24.91
2019-02-27T12:24:46.983Z,24.88
2019-02-27T12:25:46.149Z,24.85
2019-02-27T12:26:46.999Z,24.91
2019-02-27T12:27:49.785Z,24.91
2019-02-27T12:28:47.553Z,24.90
2019-02-27T12:29:46.982Z,24.95
2019-02-27T12:30:46.097Z,24.87
2019-02-27T12:31:48.397Z,24.87
2019-02-27T12:32:46.051Z,24.96
2019-02-27T12:33:46.041Z,24.93
2019-02-27T12:34:46.984Z,24.90
2019-02-27T12:35:46.059Z,25.00
2019-02-27T12:36:46.006Z,24.96
2019-02-27T12:37:45.994Z,24.91
2019-02-27T12:38:46.121Z,24.99
2019-02-27T12:39:47.274Z,25.02
2019-02-27T12:40:45.973Z,24.99
2019-02-27T12:41:45.964Z,24.99
2019-02-27T12:42:46.488Z,25.03
2019-02-27T12:43:45.925Z,24.99
2019-02-27T12:44:45.916Z,24.96
2019-02-27T12:45:45.922Z,24.99
2019-02-27T12:46:45.911Z,25.02
2019-02-27T12:47:45.895Z,24.99
2019-02-27T12:48:47.074Z,24.99
2019-02-27T12:49:45.859Z,24.91
2019-02-27T12:50:45.856Z,25.03
2019-02-27T12:51:45.865Z,24.93
2019-02-27T12:52:47.918Z,24.98